Time;durP1;ratioP1;P1;durP2;ratioP2;P2;SDS_P1;SDS_P2;PMS_P1;PMS_P2;Temp;Humidity;BMP_temperature;BMP_pressure;BME280_temperature;BME280_humidity;BME280_pressure;Samples;Min_cycle;Max_cycle;Signal;HPM_P1;HPM_P2
2023/05/17 00:00:32;;;;;;;3.40;1.15;;;11.70;99.90;;;;;;5072386;28;20045;-82
2023/05/17 00:02:58;;;;;;;1.60;0.70;;;11.70;99.90;;;;;;5073127;28;20025;-81
2023/05/17 00:05:23;;;;;;;3.35;0.90;;;11.60;99.90;;;;;;5073129;28;20064;-80
2023/05/17 00:07:50;;;;;;;6.22;1.05;;;11.60;99.90;;;;;;5066156;28;20035;-83
2023/05/17 00:10:15;;;;;;;2.63;0.70;;;11.60;99.90;;;;;;5073357;28;20099;-81
2023/05/17 00:12:41;;;;;;;2.95;0.88;;;11.60;99.90;;;;;;5073809;28;20029;-83
2023/05/17 00:15:07;;;;;;;2.20;0.60;;;11.50;99.90;;;;;;5073157;28;20067;-83
2023/05/17 00:17:32;;;;;;;5.15;1.05;;;11.60;99.90;;;;;;5072597;28;20466;-83
2023/05/17 00:19:58;;;;;;;4.07;0.60;;;11.50;99.90;;;;;;5072923;28;20388;-83
2023/05/17 00:22:24;;;;;;;5.32;1.00;;;11.50;99.90;;;;;;5073188;28;20021;-83
2023/05/17 00:24:49;;;;;;;3.88;1.45;;;11.50;99.90;;;;;;5073587;28;20477;-82
2023/05/17 00:27:15;;;;;;;7.30;1.10;;;11.50;99.90;;;;;;5072779;28;20025;-82
2023/05/17 00:29:40;;;;;;;4.10;0.90;;;11.40;99.90;;;;;;5072440;28;20034;-82
2023/05/17 00:32:06;;;;;;;2.72;1.20;;;11.40;99.90;;;;;;5074413;28;20464;-82
2023/05/17 00:34:32;;;;;;;4.60;0.90;;;11.40;99.90;;;;;;5072806;28;20037;-83
2023/05/17 00:36:57;;;;;;;4.07;1.27;;;11.40;99.90;;;;;;5072581;28;20028;-82
2023/05/17 00:39:23;;;;;;;5.15;1.45;;;11.40;99.90;;;;;;5072791;28;20456;-80
2023/05/17 00:41:48;;;;;;;1.70;0.82;;;11.30;99.90;;;;;;5073259;28;20408;-79
2023/05/17 00:44:14;;;;;;;4.22;0.90;;;11.30;99.90;;;;;;5073768;28;20032;-80
2023/05/17 00:46:40;;;;;;;3.55;0.90;;;11.30;99.90;;;;;;5072307;28;20021;-79
2023/05/17 00:49:06;;;;;;;4.85;1.13;;;11.30;99.90;;;;;;5072787;28;20066;-81
2023/05/17 00:51:33;;;;;;;4.15;0.90;;;11.30;99.90;;;;;;5072978;28;20064;-83
2023/05/17 00:53:59;;;;;;;2.88;1.33;;;11.20;99.90;;;;;;5073279;28;20063;-82
2023/05/17 00:56:25;;;;;;;3.58;1.10;;;11.20;99.90;;;;;;5089504;28;20381;-82
2023/05/17 00:58:52;;;;;;;5.13;1.20;;;11.20;99.90;;;;;;5073480;28;20466;-82
2023/05/17 01:01:18;;;;;;;8.00;1.13;;;11.20;99.90;;;;;;5072291;28;20083;-82
2023/05/17 01:03:44;;;;;;;3.13;1.15;;;11.20;99.90;;;;;;5088992;28;20028;-82
2023/05/17 01:06:10;;;;;;;5.75;1.10;;;11.10;99.90;;;;;;5089327;28;20458;-82
2023/05/17 01:08:36;;;;;;;5.35;1.10;;;11.10;99.90;;;;;;5071941;28;20033;-82
2023/05/17 01:11:38;;;;;;;4.50;1.20;;;11.10;99.90;;;;;;5072776;28;20028;-82
2023/05/17 01:14:06;;;;;;;2.70;0.80;;;11.10;99.90;;;;;;5076956;28;20025;-82
2023/05/17 01:16:42;;;;;;;4.32;1.08;;;11.00;99.90;;;;;;5076571;28;20032;-82
2023/05/17 01:19:38;;;;;;;4.57;1.00;;;11.00;99.90;;;;;;5076552;28;20039;-82
2023/05/17 01:22:16;;;;;;;4.18;0.93;;;11.00;99.90;;;;;;5077183;28;20028;-82
2023/05/17 01:25:08;;;;;;;3.75;1.13;;;11.00;99.90;;;;;;5077047;28;20025;-81
2023/05/17 01:27:36;;;;;;;3.72;1.50;;;11.00;99.90;;;;;;5076209;28;20396;-81
2023/05/17 01:30:03;;;;;;;4.45;1.10;;;11.00;99.90;;;;;;5076548;28;20028;-81
2023/05/17 01:32:29;;;;;;;2.45;0.93;;;11.00;99.90;;;;;;5075989;28;20441;-81
2023/05/17 01:34:55;;;;;;;5.78;1.05;;;10.90;99.90;;;;;;5075850;28;20026;-80
2023/05/17 01:37:20;;;;;;;4.60;1.10;;;10.90;99.90;;;;;;5077227;28;20025;-80
2023/05/17 01:39:46;;;;;;;3.60;1.20;;;10.80;99.90;;;;;;5075597;28;20028;-80
2023/05/17 01:42:26;;;;;;;2.83;1.15;;;10.70;99.90;;;;;;5076878;28;20021;-80
2023/05/17 01:45:13;;;;;;;3.78;1.13;;;10.80;99.90;;;;;;5076767;28;20025;-80
2023/05/17 01:47:55;;;;;;;3.03;1.13;;;10.80;99.90;;;;;;5075235;28;20128;-81
2023/05/17 01:50:23;;;;;;;3.65;1.40;;;10.80;99.90;;;;;;5075932;28;20054;-80
2023/05/17 01:52:54;;;;;;;2.17;1.00;;;10.80;99.90;;;;;;5075246;28;20029;-80
2023/05/17 01:55:28;;;;;;;2.42;1.23;;;10.80;99.90;;;;;;5075586;28;20021;-81
2023/05/17 01:57:56;;;;;;;3.97;1.20;;;10.70;99.90;;;;;;5076009;28;20028;-81
2023/05/17 02:00:24;;;;;;;3.85;1.60;;;10.70;99.90;;;;;;5076436;28;20056;-80
2023/05/17 02:02:49;;;;;;;4.85;1.52;;;10.70;99.90;;;;;;5074975;28;20534;-79
2023/05/17 02:05:15;;;;;;;3.50;1.60;;;10.70;99.90;;;;;;5075264;28;20021;-79
2023/05/17 02:07:40;;;;;;;8.07;1.90;;;10.70;99.90;;;;;;5091668;28;20048;-80
2023/05/17 02:10:07;;;;;;;3.20;1.30;;;10.70;99.90;;;;;;5074985;28;20029;-80
2023/05/17 02:12:32;;;;;;;3.72;1.25;;;10.70;99.90;;;;;;5075137;28;20083;-80
2023/05/17 02:14:58;;;;;;;6.22;1.30;;;10.60;99.90;;;;;;5091572;28;20425;-79
2023/05/17 02:17:24;;;;;;;3.97;1.25;;;10.60;99.90;;;;;;5075301;28;20032;-80
2023/05/17 02:19:49;;;;;;;2.78;1.27;;;10.50;99.90;;;;;;5075689;28;20028;-80
2023/05/17 02:22:15;;;;;;;11.25;1.73;;;10.30;99.90;;;;;;5076017;28;20032;-79
2023/05/17 02:24:40;;;;;;;6.00;1.55;;;10.20;99.90;;;;;;5075740;28;20069;-81
2023/05/17 02:27:06;;;;;;;3.63;1.45;;;10.20;99.90;;;;;;5074733;28;20028;-79
2023/05/17 02:29:33;;;;;;;5.30;1.80;;;10.10;99.90;;;;;;5075809;28;20038;-80
2023/05/17 02:31:58;;;;;;;4.88;1.48;;;10.10;99.90;;;;;;5074264;28;20039;-81
2023/05/17 02:34:24;;;;;;;4.43;1.63;;;10.00;99.90;;;;;;5074687;28;20028;-81
2023/05/17 02:36:50;;;;;;;7.40;2.10;;;9.90;99.90;;;;;;5074490;28;20040;-82
2023/05/17 02:39:16;;;;;;;6.70;2.30;;;9.80;99.90;;;;;;5075800;28;20036;-82
2023/05/17 02:41:42;;;;;;;5.70;1.83;;;9.70;99.90;;;;;;5075281;28;20024;-83
2023/05/17 02:44:07;;;;;;;9.70;2.00;;;9.70;99.90;;;;;;5075762;28;20020;-82
2023/05/17 02:46:33;;;;;;;7.13;1.77;;;9.70;99.90;;;;;;5075703;28;20033;-81
2023/05/17 02:48:58;;;;;;;3.50;1.55;;;9.50;99.90;;;;;;5075012;28;20435;-82
2023/05/17 02:51:24;;;;;;;3.33;1.48;;;9.60;99.90;;;;;;5075525;28;20108;-81
2023/05/17 02:53:50;;;;;;;8.60;1.80;;;9.50;99.90;;;;;;5074532;28;20024;-82
2023/05/17 02:56:15;;;;;;;3.10;1.30;;;9.50;99.90;;;;;;5074183;28;20024;-81
2023/05/17 02:58:41;;;;;;;4.68;1.40;;;9.40;99.90;;;;;;5074227;28;20124;-81
2023/05/17 03:01:08;;;;;;;3.38;1.25;;;9.30;99.90;;;;;;5074042;28;20052;-82
2023/05/17 03:03:33;;;;;;;3.13;1.20;;;9.40;99.90;;;;;;5073922;28;20037;-81
2023/05/17 03:06:00;;;;;;;5.82;1.10;;;9.30;99.90;;;;;;5073859;28;20016;-81
2023/05/17 03:08:26;;;;;;;4.78;1.27;;;9.30;99.90;;;;;;5075278;28;20028;-81
2023/05/17 03:10:52;;;;;;;6.20;1.40;;;9.30;99.90;;;;;;5073541;28;20466;-81
2023/05/17 03:13:17;;;;;;;4.63;1.30;;;9.40;99.90;;;;;;5073721;28;20032;-80
2023/05/17 03:15:43;;;;;;;4.70;1.50;;;9.20;99.90;;;;;;5090402;28;20127;-82
2023/05/17 03:18:08;;;;;;;4.45;1.40;;;9.20;99.90;;;;;;5074029;28;20024;-80
2023/05/17 03:20:34;;;;;;;3.30;1.65;;;9.20;99.90;;;;;;5074639;28;20028;-80
2023/05/17 03:23:00;;;;;;;4.15;1.30;;;9.10;99.90;;;;;;5074234;28;20063;-79
2023/05/17 03:25:25;;;;;;;7.93;1.27;;;9.20;99.90;;;;;;5073713;28;20025;-79
2023/05/17 03:27:51;;;;;;;3.20;1.35;;;9.30;99.90;;;;;;5074115;28;20029;-81
2023/05/17 03:30:16;;;;;;;4.28;1.55;;;9.40;99.90;;;;;;5073847;28;20358;-81
2023/05/17 03:32:42;;;;;;;2.47;1.20;;;9.40;99.90;;;;;;5074625;28;20094;-80
2023/05/17 03:35:08;;;;;;;1.58;0.80;;;9.50;99.90;;;;;;5072689;28;20377;-80
2023/05/17 03:37:33;;;;;;;4.78;1.40;;;9.50;99.90;;;;;;5074640;28;20029;-80
2023/05/17 03:39:59;;;;;;;7.28;1.35;;;9.50;99.90;;;;;;5072105;28;20566;-80
2023/05/17 03:42:25;;;;;;;3.88;1.20;;;9.60;99.90;;;;;;5073221;28;20116;-79
2023/05/17 03:44:51;;;;;;;4.75;1.27;;;9.60;99.90;;;;;;5072865;28;20036;-80
2023/05/17 03:47:16;;;;;;;5.72;1.60;;;9.60;99.90;;;;;;5074132;28;20123;-80
2023/05/17 03:49:42;;;;;;;2.70;1.50;;;9.70;99.90;;;;;;5074267;28;20477;-79
2023/05/17 03:52:07;;;;;;;4.10;1.75;;;9.70;99.90;;;;;;5073628;28;20060;-80
2023/05/17 03:54:33;;;;;;;4.40;1.40;;;9.70;99.90;;;;;;5073610;28;20123;-80
2023/05/17 03:56:59;;;;;;;5.25;1.30;;;9.80;99.90;;;;;;5073682;28;20535;-79
2023/05/17 03:59:24;;;;;;;3.22;1.30;;;9.80;99.90;;;;;;5074084;28;20025;-80
2023/05/17 04:01:50;;;;;;;6.78;1.30;;;9.80;99.90;;;;;;5072275;28;20045;-81
2023/05/17 04:04:15;;;;;;;8.63;1.80;;;9.80;99.90;;;;;;5074190;28;20029;-81
2023/05/17 04:06:41;;;;;;;4.22;1.48;;;9.80;99.90;;;;;;5074131;28;20024;-82
2023/05/17 04:09:09;;;;;;;5.05;1.48;;;9.80;99.90;;;;;;5073702;28;20190;-81
2023/05/17 04:11:35;;;;;;;5.05;1.50;;;9.80;99.90;;;;;;5073238;28;20038;-81
2023/05/17 04:14:00;;;;;;;5.25;1.35;;;9.80;99.90;;;;;;5073806;28;20029;-81
2023/05/17 04:16:26;;;;;;;5.85;1.40;;;9.80;99.90;;;;;;5072765;28;20028;-80
2023/05/17 04:18:52;;;;;;;3.78;1.40;;;9.90;99.90;;;;;;5072495;28;20055;-80
2023/05/17 04:21:18;;;;;;;4.70;1.58;;;9.90;99.90;;;;;;5072681;28;20021;-80
2023/05/17 04:23:44;;;;;;;3.20;1.50;;;9.90;99.90;;;;;;5072929;28;20035;-79
2023/05/17 04:26:10;;;;;;;3.95;1.45;;;9.80;99.90;;;;;;5072463;28;20033;-79
2023/05/17 04:28:35;;;;;;;6.72;1.48;;;9.80;99.90;;;;;;5072696;28;20082;-80
2023/05/17 04:31:01;;;;;;;5.20;1.30;;;9.80;99.90;;;;;;5072019;28;20540;-79
2023/05/17 04:33:27;;;;;;;5.10;1.30;;;9.80;99.90;;;;;;5073673;28;20029;-80
2023/05/17 04:35:56;;;;;;;4.75;1.30;;;9.70;99.90;;;;;;5073625;28;20024;-82
2023/05/17 04:38:22;;;;;;;5.60;1.33;;;9.70;99.90;;;;;;5073350;28;20377;-82
2023/05/17 04:40:48;;;;;;;3.88;1.85;;;9.70;99.90;;;;;;5072169;28;20031;-82
2023/05/17 04:43:14;;;;;;;3.72;1.40;;;9.60;99.90;;;;;;5073954;28;20032;-82
2023/05/17 04:45:39;;;;;;;4.43;1.48;;;9.60;99.90;;;;;;5072734;28;20024;-82
2023/05/17 04:48:05;;;;;;;2.30;1.20;;;9.60;99.90;;;;;;5076546;28;20029;-80
2023/05/17 04:50:31;;;;;;;7.43;1.50;;;9.60;99.90;;;;;;5077861;28;20037;-82
2023/05/17 04:52:56;;;;;;;6.68;1.40;;;9.60;99.90;;;;;;5076156;28;20029;-81
2023/05/17 04:55:22;;;;;;;5.13;1.52;;;9.70;99.90;;;;;;5076490;28;20021;-82
2023/05/17 04:57:48;;;;;;;5.47;1.50;;;9.70;99.90;;;;;;5077524;28;20031;-81
2023/05/17 05:00:15;;;;;;;5.18;1.75;;;9.80;99.90;;;;;;5076690;28;20128;-82
2023/05/17 05:02:41;;;;;;;7.88;1.50;;;9.90;99.90;;;;;;5075551;28;20489;-82
2023/05/17 05:05:08;;;;;;;2.83;1.40;;;9.90;99.90;;;;;;5074546;28;20021;-82
2023/05/17 05:07:33;;;;;;;6.55;1.80;;;9.90;99.90;;;;;;5075220;28;20032;-80
2023/05/17 05:10:00;;;;;;;3.85;1.67;;;10.00;99.90;;;;;;5074676;28;20111;-81
2023/05/17 05:12:25;;;;;;;6.55;1.65;;;10.10;99.90;;;;;;5075095;28;20029;-82
2023/05/17 05:14:51;;;;;;;4.30;1.60;;;10.10;99.90;;;;;;5074312;28;20487;-81
2023/05/17 05:17:16;;;;;;;3.78;1.80;;;10.10;99.90;;;;;;5074703;28;20376;-81
2023/05/17 05:19:42;;;;;;;5.10;2.00;;;10.20;99.90;;;;;;5058328;28;20029;-81
2023/05/17 05:22:08;;;;;;;5.00;1.83;;;10.20;99.90;;;;;;5055869;28;20441;-78
2023/05/17 05:24:33;;;;;;;6.93;2.10;;;10.20;99.90;;;;;;5061354;28;20035;-77
2023/05/17 05:26:59;;;;;;;6.45;2.05;;;10.30;99.90;;;;;;5053673;28;20021;-79
2023/05/17 05:29:24;;;;;;;7.88;2.05;;;10.40;99.90;;;;;;5054315;28;20025;-78
2023/05/17 05:31:50;;;;;;;6.32;2.17;;;10.40;99.90;;;;;;5069847;28;20082;-80
2023/05/17 05:34:16;;;;;;;5.15;2.00;;;10.40;99.90;;;;;;5073958;28;20074;-80
2023/05/17 05:36:41;;;;;;;6.38;2.00;;;10.40;99.90;;;;;;5074608;28;20028;-81
2023/05/17 05:39:07;;;;;;;7.68;2.40;;;10.50;99.90;;;;;;5074260;28;20028;-81
2023/05/17 05:41:32;;;;;;;5.38;2.33;;;10.60;99.90;;;;;;5063212;28;20052;-83
2023/05/17 05:43:58;;;;;;;8.13;2.35;;;10.70;99.90;;;;;;5054035;28;20036;-84
2023/05/17 05:46:25;;;;;;;6.95;2.40;;;10.70;99.90;;;;;;5055754;28;20048;-83
2023/05/17 05:48:50;;;;;;;7.10;2.85;;;10.80;99.90;;;;;;5055924;28;20036;-81
2023/05/17 05:51:17;;;;;;;6.57;2.97;;;10.90;99.90;;;;;;5073751;28;20119;-80
2023/05/17 05:53:43;;;;;;;5.38;2.17;;;10.90;99.90;;;;;;5075449;28;20416;-80
2023/05/17 05:56:08;;;;;;;6.38;2.17;;;10.90;99.90;;;;;;5073679;28;20077;-81
2023/05/17 05:58:34;;;;;;;9.43;2.50;;;11.10;99.90;;;;;;5067864;28;20081;-81
2023/05/17 06:01:00;;;;;;;4.68;2.17;;;11.20;99.90;;;;;;5016165;28;1102256;-81
2023/05/17 06:03:25;;;;;;;6.47;2.03;;;11.20;99.90;;;;;;5056581;28;20270;-82
2023/05/17 06:05:51;;;;;;;8.18;2.35;;;11.30;99.90;;;;;;5071423;28;20103;-82
2023/05/17 06:08:16;;;;;;;6.43;2.45;;;11.30;99.90;;;;;;5062860;28;20058;-82
2023/05/17 06:10:42;;;;;;;8.48;2.70;;;11.30;99.90;;;;;;5066348;28;20483;-82
2023/05/17 06:13:07;;;;;;;6.90;2.20;;;11.30;99.90;;;;;;5071113;28;20484;-83
2023/05/17 06:15:33;;;;;;;5.50;2.60;;;11.40;99.90;;;;;;5060781;28;20028;-82
2023/05/17 06:17:59;;;;;;;6.97;2.35;;;11.40;99.90;;;;;;5055105;28;20064;-82
2023/05/17 06:20:24;;;;;;;6.53;2.38;;;11.40;99.90;;;;;;5084614;28;20032;-80
2023/05/17 06:22:50;;;;;;;10.93;2.55;;;11.40;99.90;;;;;;5073823;28;20024;-81
2023/05/17 06:25:15;;;;;;;7.53;2.47;;;11.40;99.90;;;;;;5058409;28;20484;-83
2023/05/17 06:27:41;;;;;;;8.52;2.53;;;11.30;99.90;;;;;;5070862;28;20094;-83
2023/05/17 06:30:07;;;;;;;8.70;2.40;;;11.30;99.90;;;;;;5059228;28;20029;-82
2023/05/17 06:32:33;;;;;;;5.13;2.40;;;11.20;99.90;;;;;;5074841;28;20090;-81
2023/05/17 06:34:59;;;;;;;10.90;2.15;;;11.30;99.90;;;;;;5078073;28;20033;-83
2023/05/17 06:37:25;;;;;;;8.57;3.08;;;11.30;99.90;;;;;;5074119;28;20089;-81
2023/05/17 06:39:51;;;;;;;6.38;2.30;;;11.30;99.90;;;;;;5054665;28;20074;-81
2023/05/17 06:42:17;;;;;;;8.25;2.03;;;11.30;99.90;;;;;;5066537;28;20021;-81
2023/05/17 06:44:43;;;;;;;8.27;2.00;;;11.30;99.90;;;;;;5064816;28;20024;-83
2023/05/17 06:47:09;;;;;;;8.07;2.22;;;11.30;99.90;;;;;;5059553;28;20100;-82
2023/05/17 06:49:35;;;;;;;7.32;2.13;;;11.30;99.90;;;;;;5058500;28;20040;-82
2023/05/17 06:52:02;;;;;;;5.25;2.00;;;11.30;99.90;;;;;;5068342;28;20036;-80
2023/05/17 06:54:30;;;;;;;6.45;2.17;;;11.40;99.90;;;;;;5061438;28;20485;-85
2023/05/17 06:57:03;;;;;;;5.10;2.00;;;11.40;99.90;;;;;;5064216;28;20483;-86
2023/05/17 06:59:29;;;;;;;6.82;1.95;;;11.40;99.90;;;;;;5068355;28;20085;-82
2023/05/17 07:01:55;;;;;;;5.53;1.92;;;11.40;99.90;;;;;;5064680;28;20053;-83
2023/05/17 07:04:21;;;;;;;4.40;1.80;;;11.50;99.90;;;;;;5054097;28;20124;-82
2023/05/17 07:06:46;;;;;;;8.35;2.05;;;11.50;99.90;;;;;;5054426;28;20116;-81
2023/05/17 07:09:12;;;;;;;8.63;2.08;;;11.60;99.90;;;;;;5053286;28;20033;-82
2023/05/17 07:11:38;;;;;;;5.47;1.85;;;11.60;99.90;;;;;;5055766;28;20229;-80
2023/05/17 07:14:03;;;;;;;7.88;2.25;;;11.60;99.90;;;;;;5063006;28;20029;-81
2023/05/17 07:16:29;;;;;;;5.85;1.88;;;11.70;99.90;;;;;;5071097;28;20465;-83
2023/05/17 07:18:55;;;;;;;8.55;2.22;;;11.70;99.90;;;;;;5070320;28;20032;-80
2023/05/17 07:21:22;;;;;;;5.18;2.10;;;11.70;99.90;;;;;;5062279;28;20021;-82
2023/05/17 07:23:51;;;;;;;7.50;2.22;;;11.80;99.90;;;;;;5073340;28;20067;-81
2023/05/17 07:26:18;;;;;;;5.07;2.08;;;11.70;99.90;;;;;;5074647;28;20017;-83
2023/05/17 07:28:44;;;;;;;7.03;2.28;;;11.70;99.90;;;;;;5080305;28;20032;-80
2023/05/17 07:31:10;;;;;;;5.70;1.92;;;11.80;99.90;;;;;;5069361;28;20475;-80
2023/05/17 07:33:36;;;;;;;11.75;2.55;;;11.80;99.90;;;;;;5073057;28;20048;-81
2023/05/17 07:36:02;;;;;;;4.55;1.67;;;11.90;99.90;;;;;;5067522;28;20469;-81
2023/05/17 07:38:27;;;;;;;9.25;2.00;;;12.00;99.90;;;;;;5061369;28;20020;-82
2023/05/17 07:40:54;;;;;;;5.82;2.25;;;12.00;99.90;;;;;;5069292;28;20060;-82
2023/05/17 07:43:20;;;;;;;5.70;1.95;;;12.00;99.90;;;;;;5072726;28;20116;-81
2023/05/17 07:45:46;;;;;;;9.57;2.05;;;12.10;99.90;;;;;;5073188;28;20056;-82
2023/05/17 07:48:12;;;;;;;5.03;1.90;;;12.20;99.90;;;;;;5066056;28;20465;-83
2023/05/17 07:50:38;;;;;;;8.10;2.08;;;12.30;99.90;;;;;;5061784;28;20045;-83
2023/05/17 07:53:04;;;;;;;7.35;1.90;;;12.30;99.90;;;;;;5052394;28;20298;-82
2023/05/17 07:55:29;;;;;;;5.50;2.15;;;12.30;99.90;;;;;;5071720;28;20428;-83
2023/05/17 07:57:55;;;;;;;7.80;2.42;;;12.30;99.90;;;;;;5065162;28;20020;-85
2023/05/17 08:00:21;;;;;;;7.28;2.50;;;12.40;99.90;;;;;;5071334;28;20044;-84
2023/05/17 08:02:47;;;;;;;7.13;2.30;;;12.50;99.90;;;;;;5053098;28;20033;-82
2023/05/17 08:05:12;;;;;;;7.13;1.98;;;12.50;99.90;;;;;;5053561;28;20413;-82
2023/05/17 08:07:38;;;;;;;5.65;2.03;;;12.50;99.90;;;;;;5070835;28;20391;-82
2023/05/17 08:10:04;;;;;;;6.47;2.05;;;12.50;99.90;;;;;;5073482;28;20153;-79
2023/05/17 08:12:30;;;;;;;4.30;2.00;;;12.50;99.90;;;;;;5065628;28;20052;-81
2023/05/17 08:14:55;;;;;;;8.50;1.88;;;12.40;99.90;;;;;;5067685;28;20511;-84
2023/05/17 08:17:21;;;;;;;4.85;2.10;;;12.40;99.90;;;;;;5065946;28;20024;-84
2023/05/17 08:19:47;;;;;;;7.10;2.40;;;12.40;99.90;;;;;;5071140;28;20032;-81
2023/05/17 08:22:12;;;;;;;5.75;2.47;;;12.40;99.90;;;;;;5067260;28;20025;-83
2023/05/17 08:24:38;;;;;;;6.22;2.20;;;12.40;99.90;;;;;;5074141;28;20025;-82
2023/05/17 08:27:04;;;;;;;9.20;2.35;;;12.40;99.90;;;;;;5070925;28;20518;-81
2023/05/17 08:29:29;;;;;;;8.77;2.65;;;12.40;99.90;;;;;;5052696;28;20125;-79
2023/05/17 08:31:55;;;;;;;7.60;2.85;;;12.40;99.90;;;;;;5058945;28;20124;-83
2023/05/17 08:34:21;;;;;;;6.63;2.50;;;12.50;99.90;;;;;;5071744;28;20400;-79
2023/05/17 08:36:46;;;;;;;5.93;2.28;;;12.50;99.90;;;;;;5068711;28;20059;-79
2023/05/17 08:39:12;;;;;;;4.80;2.10;;;12.50;99.90;;;;;;5072122;28;20029;-79
2023/05/17 08:41:38;;;;;;;5.07;2.40;;;12.60;99.90;;;;;;5070336;28;20032;-82
2023/05/17 08:44:05;;;;;;;8.80;2.33;;;12.60;99.90;;;;;;5056472;28;20472;-83
2023/05/17 08:46:32;;;;;;;4.82;2.20;;;12.60;99.90;;;;;;5068399;28;20029;-82
2023/05/17 08:49:00;;;;;;;4.07;2.25;;;12.60;99.90;;;;;;5059436;28;20032;-79
2023/05/17 08:51:27;;;;;;;4.53;2.53;;;12.60;99.90;;;;;;5069717;28;20032;-79
2023/05/17 08:53:57;;;;;;;13.05;2.80;;;12.60;99.90;;;;;;5073361;28;20025;-77
2023/05/17 08:56:24;;;;;;;7.30;2.42;;;12.50;99.90;;;;;;5071841;28;20032;-80
2023/05/17 08:58:55;;;;;;;7.05;2.58;;;12.70;99.90;;;;;;5061802;28;20029;-80
2023/05/17 09:01:21;;;;;;;7.05;2.40;;;12.90;99.90;;;;;;5064078;28;20520;-80
2023/05/17 09:03:48;;;;;;;8.00;2.60;;;13.00;99.90;;;;;;5068866;28;20104;-80
2023/05/17 09:06:22;;;;;;;8.55;2.63;;;13.00;99.90;;;;;;5058155;28;20048;-81
2023/05/17 09:08:53;;;;;;;6.55;2.20;;;12.90;99.90;;;;;;5062119;28;20029;-84
2023/05/17 09:11:28;;;;;;;5.83;2.03;;;12.90;99.90;;;;;;5067138;28;20028;-81
2023/05/17 09:13:57;;;;;;;7.45;2.25;;;13.00;99.90;;;;;;5055444;28;20048;-82
2023/05/17 09:16:22;;;;;;;6.20;2.20;;;13.00;99.90;;;;;;5070773;28;20031;-79
2023/05/17 09:18:56;;;;;;;5.43;2.25;;;13.10;99.90;;;;;;5060036;28;20033;-80
2023/05/17 09:21:23;;;;;;;5.35;2.58;;;13.20;99.90;;;;;;5067645;28;20021;-80
2023/05/17 09:23:50;;;;;;;5.00;2.35;;;13.20;99.90;;;;;;5052031;28;20029;-80
2023/05/17 09:26:17;;;;;;;12.25;2.83;;;13.20;99.90;;;;;;5057938;28;20025;-80
2023/05/17 09:28:43;;;;;;;6.38;2.13;;;13.20;99.90;;;;;;5072273;28;20377;-81
2023/05/17 09:31:11;;;;;;;5.65;2.50;;;13.40;99.90;;;;;;5066919;28;20033;-80
2023/05/17 09:33:50;;;;;;;4.30;2.20;;;13.60;99.90;;;;;;5055985;28;20499;-80
2023/05/17 09:36:20;;;;;;;8.38;2.40;;;13.60;99.90;;;;;;5075358;28;20028;-80
2023/05/17 09:38:55;;;;;;;6.28;2.80;;;13.50;99.90;;;;;;5075952;28;20067;-80
2023/05/17 09:41:21;;;;;;;4.13;2.45;;;13.50;99.90;;;;;;5060114;28;20021;-79
2023/05/17 09:43:47;;;;;;;4.60;1.90;;;13.50;99.90;;;;;;5055551;28;20452;-79
2023/05/17 09:46:14;;;;;;;6.85;1.90;;;13.60;99.90;;;;;;5062600;28;20434;-80
2023/05/17 09:48:42;;;;;;;5.30;2.13;;;13.80;99.90;;;;;;5055894;28;20094;-79
2023/05/17 09:51:08;;;;;;;3.97;1.85;;;13.90;99.90;;;;;;5056278;28;20063;-83
2023/05/17 09:53:38;;;;;;;5.20;2.30;;;14.00;99.90;;;;;;5073114;28;20121;-80
2023/05/17 09:56:05;;;;;;;4.43;1.92;;;14.10;99.90;;;;;;5068434;28;20028;-79
2023/05/17 09:58:33;;;;;;;4.65;1.77;;;14.10;99.90;;;;;;5057820;28;20025;-79
2023/05/17 10:01:02;;;;;;;4.70;2.17;;;14.20;99.90;;;;;;5063181;28;20619;-84
2023/05/17 10:03:47;;;;;;;6.90;1.92;;;14.30;99.90;;;;;;5075669;28;20028;-80
2023/05/17 10:06:14;;;;;;;3.42;1.67;;;14.50;99.70;;;;;;5074975;28;20024;-79
2023/05/17 10:08:43;;;;;;;6.00;1.70;;;14.60;98.90;;;;;;5067937;28;20041;-80
2023/05/17 10:11:10;;;;;;;5.75;2.22;;;14.60;99.70;;;;;;5074657;28;20040;-80
2023/05/17 10:13:48;;;;;;;4.78;1.95;;;14.60;99.20;;;;;;5074006;28;20649;-80
2023/05/17 10:16:15;;;;;;;7.57;1.98;;;14.40;99.90;;;;;;5054447;28;20648;-80
2023/05/17 10:18:41;;;;;;;5.88;1.98;;;14.40;99.30;;;;;;5073006;28;20474;-80
2023/05/17 10:21:07;;;;;;;6.13;1.85;;;14.30;99.60;;;;;;5074451;28;20031;-80
2023/05/17 10:23:34;;;;;;;5.22;1.85;;;14.30;99.60;;;;;;5076081;28;20028;-81
2023/05/17 10:26:01;;;;;;;5.38;2.20;;;14.30;99.40;;;;;;5074123;28;20028;-92
2023/05/17 10:28:29;;;;;;;9.35;2.13;;;14.40;99.90;;;;;;5074561;28;20384;-80
2023/05/17 10:30:56;;;;;;;5.88;2.20;;;14.50;99.90;;;;;;5086747;28;20481;-80
2023/05/17 10:33:22;;;;;;;3.55;1.83;;;14.60;99.30;;;;;;5059291;28;20036;-83
2023/05/17 10:35:49;;;;;;;5.75;1.88;;;14.80;98.10;;;;;;5070368;28;20112;-85
2023/05/17 10:38:16;;;;;;;6.00;2.28;;;14.90;97.70;;;;;;5060022;28;20028;-80
2023/05/17 10:40:42;;;;;;;5.40;2.25;;;14.90;97.90;;;;;;5063554;28;20077;-83
2023/05/17 10:43:09;;;;;;;7.57;1.90;;;14.80;99.10;;;;;;5067040;28;20041;-79
2023/05/17 10:45:35;;;;;;;5.85;1.95;;;14.80;98.00;;;;;;5056151;28;20043;-80
2023/05/17 10:48:05;;;;;;;4.40;2.05;;;14.70;98.30;;;;;;5068412;28;20025;-81
2023/05/17 10:50:31;;;;;;;6.75;2.17;;;14.70;98.20;;;;;;5062499;28;20111;-81
2023/05/17 10:52:58;;;;;;;5.25;2.00;;;14.70;97.80;;;;;;5064230;28;20090;-80
2023/05/17 10:55:38;;;;;;;5.53;1.70;;;14.70;97.10;;;;;;5059503;28;20083;-81
2023/05/17 10:58:15;;;;;;;6.43;1.75;;;14.70;97.10;;;;;;5059400;28;20024;-81
2023/05/17 11:00:48;;;;;;;4.70;1.83;;;14.70;97.30;;;;;;5069670;28;20057;-79
2023/05/17 11:03:19;;;;;;;6.20;1.63;;;14.80;96.50;;;;;;5058618;28;20067;-81
2023/05/17 11:06:04;;;;;;;3.03;1.55;;;14.80;96.40;;;;;;5070615;28;20032;-81
2023/05/17 11:08:30;;;;;;;5.18;1.80;;;14.90;95.40;;;;;;5063219;28;20024;-80
2023/05/17 11:11:25;;;;;;;3.67;1.65;;;15.10;95.80;;;;;;5077821;28;20086;-80
2023/05/17 11:13:54;;;;;;;5.13;1.80;;;15.20;95.00;;;;;;5057776;28;20036;-80
2023/05/17 11:16:22;;;;;;;2.45;1.52;;;15.20;94.80;;;;;;5052398;28;20268;-79
2023/05/17 11:18:56;;;;;;;4.90;1.75;;;15.40;94.80;;;;;;5064922;28;20370;-80
2023/05/17 11:21:21;;;;;;;6.32;1.80;;;15.50;94.20;;;;;;5056950;28;20112;-80
2023/05/17 11:23:52;;;;;;;5.80;2.22;;;15.60;92.90;;;;;;5077145;28;20052;-80
2023/05/17 11:26:27;;;;;;;4.90;1.57;;;15.80;93.40;;;;;;5066830;28;20074;-80
2023/05/17 11:29:01;;;;;;;3.28;1.60;;;15.90;91.70;;;;;;5069622;28;20032;-80
2023/05/17 11:31:35;;;;;;;5.97;1.50;;;16.00;91.60;;;;;;5057544;28;20033;-81
2023/05/17 11:34:04;;;;;;;4.53;1.90;;;15.90;90.60;;;;;;5076764;28;20482;-92
2023/05/17 11:36:31;;;;;;;6.00;1.60;;;16.00;91.10;;;;;;5063850;28;20416;-80
2023/05/17 11:39:14;;;;;;;4.18;1.60;;;15.90;90.00;;;;;;5065206;28;20033;-80
2023/05/17 11:41:47;;;;;;;6.25;1.88;;;15.80;90.00;;;;;;5056302;28;20481;-80
2023/05/17 11:44:14;;;;;;;6.35;1.67;;;15.90;90.30;;;;;;5060786;28;20450;-80
2023/05/17 11:46:40;;;;;;;3.85;1.58;;;15.90;87.00;;;;;;5062408;28;20116;-80
2023/05/17 11:49:06;;;;;;;7.20;1.73;;;15.80;87.00;;;;;;5065515;28;20032;-80
2023/05/17 11:51:32;;;;;;;4.43;1.90;;;15.80;85.70;;;;;;5057533;28;20036;-81
2023/05/17 11:54:02;;;;;;;3.80;1.67;;;15.90;86.20;;;;;;5068852;28;20017;-81
2023/05/17 11:56:35;;;;;;;3.83;1.80;;;16.10;83.20;;;;;;5057620;28;20485;-80
2023/05/17 11:59:02;;;;;;;3.47;1.40;;;16.20;84.50;;;;;;5070905;28;20051;-80
2023/05/17 12:01:40;;;;;;;5.43;2.25;;;16.20;84.30;;;;;;5085097;28;20060;-81
2023/05/17 12:04:06;;;;;;;3.65;1.65;;;16.10;85.00;;;;;;5058424;28;20028;-80
2023/05/17 12:06:33;;;;;;;2.72;1.58;;;16.10;84.80;;;;;;5064611;28;20123;-80
2023/05/17 12:08:59;;;;;;;3.60;1.60;;;16.00;84.60;;;;;;5065134;28;20028;-78
2023/05/17 12:11:26;;;;;;;6.45;2.22;;;15.90;82.60;;;;;;5073089;28;20104;-81
2023/05/17 12:13:52;;;;;;;5.25;1.80;;;16.00;83.00;;;;;;5069470;28;20029;-80
2023/05/17 12:16:21;;;;;;;5.43;1.85;;;16.20;84.00;;;;;;5059782;28;20020;-80
2023/05/17 12:18:50;;;;;;;5.55;1.98;;;16.20;81.80;;;;;;5060430;28;20029;-88
2023/05/17 12:21:17;;;;;;;6.20;1.90;;;16.30;79.90;;;;;;5051625;28;20470;-80
2023/05/17 12:23:45;;;;;;;3.60;1.70;;;16.40;81.90;;;;;;5052636;28;20029;-80
2023/05/17 12:26:22;;;;;;;4.60;2.00;;;16.50;82.70;;;;;;5052297;28;20082;-80
2023/05/17 12:28:57;;;;;;;4.65;1.88;;;16.60;79.00;;;;;;5053626;28;20037;-80
2023/05/17 12:31:27;;;;;;;5.10;1.90;;;16.60;79.40;;;;;;5084851;28;20220;-82
2023/05/17 12:33:53;;;;;;;2.63;1.43;;;16.70;79.10;;;;;;5081637;28;20074;-79
2023/05/17 12:36:21;;;;;;;4.18;2.00;;;16.80;80.00;;;;;;5062184;28;20249;-80
2023/05/17 12:38:47;;;;;;;4.65;1.83;;;17.00;80.70;;;;;;5060128;28;20029;-80
2023/05/17 12:41:15;;;;;;;6.40;1.88;;;17.10;81.60;;;;;;5052641;28;20083;-80
2023/05/17 12:43:44;;;;;;;5.90;1.80;;;17.20;80.50;;;;;;5055063;28;20082;-80
2023/05/17 12:46:17;;;;;;;5.07;1.80;;;17.40;82.20;;;;;;5083175;28;20028;-80
2023/05/17 12:48:43;;;;;;;5.45;1.83;;;17.40;77.00;;;;;;5062134;28;20033;-81